Time;durP1;ratioP1;P1;durP2;ratioP2;P2;SDS_P1;SDS_P2;PMS_P1;PMS_P2;Temp;Humidity;BMP_temperature;BMP_pressure;BME280_temperature;BME280_humidity;BME280_pressure;Samples;Min_cycle;Max_cycle;Signal;HPM_P1;HPM_P2
2023/08/29 00:00:28;;;;;;;3.77;3.53;;;14.80;99.90;;;;;;5032772;28;20448;-63
2023/08/29 00:02:55;;;;;;;4.17;3.60;;;14.70;99.90;;;;;;5032759;28;20471;-63
2023/08/29 00:05:22;;;;;;;3.00;2.80;;;14.70;99.90;;;;;;5032889;28;20553;-63
2023/08/29 00:07:49;;;;;;;5.07;4.07;;;14.70;99.90;;;;;;5032119;28;20549;-63
2023/08/29 00:10:17;;;;;;;3.43;3.23;;;14.80;99.90;;;;;;5031151;28;20453;-63
2023/08/29 00:12:44;;;;;;;3.03;2.83;;;14.70;99.90;;;;;;5032499;28;20583;-63
2023/08/29 00:15:11;;;;;;;5.60;3.17;;;14.80;99.90;;;;;;5032721;28;20807;-63
2023/08/29 00:17:38;;;;;;;3.33;3.03;;;14.70;99.90;;;;;;5031397;28;20492;-63
2023/08/29 00:20:05;;;;;;;4.30;4.10;;;14.70;99.90;;;;;;5032312;28;20540;-63
2023/08/29 00:22:32;;;;;;;4.43;4.03;;;14.80;99.90;;;;;;5031981;28;20480;-63
2023/08/29 00:24:59;;;;;;;3.73;3.43;;;14.80;99.90;;;;;;5032554;28;20820;-63
2023/08/29 00:27:27;;;;;;;3.80;3.50;;;14.70;99.90;;;;;;5031558;28;20453;-63
2023/08/29 00:29:54;;;;;;;3.63;3.43;;;14.80;99.90;;;;;;5032596;28;20457;-63
2023/08/29 00:32:21;;;;;;;3.10;2.90;;;14.70;99.90;;;;;;5032497;28;20486;-63
2023/08/29 00:34:48;;;;;;;3.10;2.90;;;14.80;99.90;;;;;;5032880;28;20457;-63
2023/08/29 00:37:15;;;;;;;3.60;3.37;;;14.80;99.90;;;;;;5031580;28;20491;-63
2023/08/29 00:39:41;;;;;;;3.23;3.03;;;14.80;99.90;;;;;;5032533;28;20451;-63
2023/08/29 00:42:09;;;;;;;3.90;3.23;;;14.80;99.90;;;;;;5032675;28;20884;-63
2023/08/29 00:44:38;;;;;;;3.63;3.43;;;14.80;99.90;;;;;;5032294;28;20461;-63
2023/08/29 00:47:05;;;;;;;3.73;3.53;;;14.80;99.90;;;;;;5031148;28;20454;-63
2023/08/29 00:49:32;;;;;;;3.67;3.47;;;14.80;99.90;;;;;;5032272;28;20532;-63
2023/08/29 00:52:02;;;;;;;3.97;3.67;;;14.80;99.90;;;;;;5031796;28;20556;-63
2023/08/29 00:54:29;;;;;;;3.53;3.33;;;14.80;99.90;;;;;;5032166;28;20449;-63
2023/08/29 00:56:56;;;;;;;4.53;3.67;;;14.80;99.90;;;;;;5031126;28;20486;-63
2023/08/29 00:59:23;;;;;;;3.63;3.40;;;14.80;99.90;;;;;;5031823;28;20565;-63
2023/08/29 01:01:51;;;;;;;3.53;3.37;;;14.80;99.90;;;;;;5031867;28;20575;-63
2023/08/29 01:04:19;;;;;;;3.83;3.53;;;14.80;99.90;;;;;;5031843;28;20555;-63
2023/08/29 01:06:46;;;;;;;5.13;3.43;;;14.80;99.90;;;;;;5031028;28;20454;-63
2023/08/29 01:09:13;;;;;;;3.47;3.27;;;14.80;99.90;;;;;;5031814;28;20552;-63
2023/08/29 01:11:46;;;;;;;3.70;3.50;;;14.80;99.90;;;;;;5029639;28;20502;-63
2023/08/29 01:14:19;;;;;;;3.73;3.43;;;14.80;99.90;;;;;;5031298;28;21024;-63
2023/08/29 01:16:53;;;;;;;3.57;3.27;;;14.80;99.90;;;;;;5030848;28;20592;-63
2023/08/29 01:19:23;;;;;;;3.63;3.43;;;14.80;99.90;;;;;;5031357;28;20467;-63
2023/08/29 01:21:56;;;;;;;3.50;3.30;;;14.90;99.90;;;;;;5031182;28;20492;-63
2023/08/29 01:24:27;;;;;;;3.50;3.30;;;14.90;99.90;;;;;;5031295;28;20446;-63
2023/08/29 01:26:56;;;;;;;4.00;3.70;;;14.90;99.90;;;;;;5030973;28;20456;-63
2023/08/29 01:29:24;;;;;;;3.57;3.37;;;14.90;99.90;;;;;;5031537;28;20456;-63
2023/08/29 01:31:52;;;;;;;3.60;3.30;;;14.90;99.90;;;;;;5031461;28;20483;-63
2023/08/29 01:34:19;;;;;;;4.00;3.70;;;14.90;99.90;;;;;;5031092;28;20540;-63
2023/08/29 01:36:47;;;;;;;8.33;3.83;;;14.90;99.90;;;;;;5030143;28;20487;-63
2023/08/29 01:39:14;;;;;;;3.73;3.53;;;14.90;99.90;;;;;;5031047;28;20458;-63
2023/08/29 01:41:41;;;;;;;3.60;3.30;;;14.90;99.90;;;;;;5031194;28;20565;-63
2023/08/29 01:44:09;;;;;;;3.80;3.60;;;14.90;99.90;;;;;;5030941;28;20821;-63
2023/08/29 01:46:37;;;;;;;4.57;4.17;;;14.90;99.90;;;;;;5030213;28;20935;-63
2023/08/29 01:49:05;;;;;;;2.90;2.80;;;15.00;99.90;;;;;;5030677;28;20970;-63
2023/08/29 01:51:32;;;;;;;3.23;3.03;;;15.00;99.90;;;;;;5030962;28;20470;-63
2023/08/29 01:53:59;;;;;;;3.83;3.47;;;15.00;99.90;;;;;;5030962;28;20879;-63
2023/08/29 01:56:29;;;;;;;3.17;2.97;;;15.00;99.90;;;;;;5030059;28;20493;-63
2023/08/29 01:58:57;;;;;;;3.87;3.47;;;15.00;99.90;;;;;;5031058;28;20536;-63
2023/08/29 02:01:25;;;;;;;3.83;3.47;;;15.00;99.90;;;;;;5030706;28;20941;-63
2023/08/29 02:03:52;;;;;;;3.57;3.27;;;15.00;99.90;;;;;;5030687;28;20445;-63
2023/08/29 02:06:20;;;;;;;3.63;3.40;;;15.00;99.90;;;;;;5030062;28;20544;-63
2023/08/29 02:08:47;;;;;;;3.93;3.63;;;15.00;99.90;;;;;;5030455;28;20455;-63
2023/08/29 02:11:14;;;;;;;15.13;4.23;;;15.00;99.90;;;;;;5028747;28;20469;-63
2023/08/29 02:13:41;;;;;;;5.03;3.53;;;15.00;99.90;;;;;;5030465;28;20550;-63
2023/08/29 02:16:08;;;;;;;4.33;4.10;;;15.10;99.90;;;;;;5029313;28;20548;-63
2023/08/29 02:18:36;;;;;;;4.27;3.93;;;15.10;99.90;;;;;;5030498;28;20485;-63
2023/08/29 02:21:03;;;;;;;3.93;3.67;;;15.10;99.90;;;;;;5030397;28;20447;-63
2023/08/29 02:23:30;;;;;;;4.03;3.43;;;15.10;99.90;;;;;;5030473;28;20453;-63
2023/08/29 02:26:03;;;;;;;4.50;4.20;;;15.00;99.90;;;;;;5029541;28;20455;-63
2023/08/29 02:28:35;;;;;;;4.00;3.70;;;15.10;99.90;;;;;;5029976;28;20450;-63
2023/08/29 02:31:05;;;;;;;3.70;3.40;;;15.10;99.90;;;;;;5030061;28;20453;-63
2023/08/29 02:33:33;;;;;;;4.60;4.00;;;15.10;99.90;;;;;;5030260;28;20450;-63
2023/08/29 02:36:01;;;;;;;3.97;3.77;;;15.10;99.90;;;;;;5029373;28;20995;-63
2023/08/29 02:38:28;;;;;;;4.17;3.90;;;15.10;99.90;;;;;;5028612;28;20493;-64
2023/08/29 02:40:55;;;;;;;4.07;3.80;;;15.10;99.90;;;;;;5029853;28;20538;-63
2023/08/29 02:43:22;;;;;;;3.80;3.60;;;15.10;99.90;;;;;;5029736;28;20455;-63
2023/08/29 02:45:50;;;;;;;4.23;3.93;;;15.10;99.90;;;;;;5029492;28;20446;-63
2023/08/29 02:48:17;;;;;;;4.20;3.90;;;15.10;99.90;;;;;;5029288;28;20946;-63
2023/08/29 02:50:45;;;;;;;5.00;3.70;;;15.20;99.90;;;;;;5029669;28;20449;-63
2023/08/29 02:53:13;;;;;;;4.67;4.27;;;15.20;99.90;;;;;;5029486;28;20465;-64
2023/08/29 02:55:41;;;;;;;4.13;3.70;;;15.20;99.90;;;;;;5029826;28;20449;-64
2023/08/29 02:58:08;;;;;;;4.20;3.90;;;15.20;99.90;;;;;;5028896;28;20486;-64
2023/08/29 03:00:35;;;;;;;4.57;4.17;;;15.20;99.90;;;;;;5029363;28;20444;-63
2023/08/29 03:03:03;;;;;;;4.67;3.90;;;15.20;99.90;;;;;;5029512;28;20544;-63
2023/08/29 03:05:30;;;;;;;4.63;3.87;;;15.20;99.90;;;;;;5029253;28;20507;-63
2023/08/29 03:07:57;;;;;;;3.73;3.53;;;15.20;99.90;;;;;;5028541;28;20453;-63
2023/08/29 03:10:25;;;;;;;4.50;4.10;;;15.20;99.90;;;;;;5027816;28;20477;-66
2023/08/29 03:12:52;;;;;;;3.60;3.40;;;15.20;99.90;;;;;;5029230;28;20476;-64
2023/08/29 03:15:19;;;;;;;4.30;4.00;;;15.20;99.90;;;;;;5029489;28;20544;-63
2023/08/29 03:17:46;;;;;;;5.10;4.70;;;15.20;99.90;;;;;;5025103;28;20507;-63
2023/08/29 03:20:13;;;;;;;5.73;5.23;;;15.20;99.90;;;;;;5029145;28;20533;-63
2023/08/29 03:22:40;;;;;;;4.97;4.67;;;15.20;99.90;;;;;;5028627;28;20480;-63
2023/08/29 03:25:07;;;;;;;4.10;3.70;;;15.20;99.90;;;;;;5028823;28;20535;-64
2023/08/29 03:27:35;;;;;;;4.67;4.40;;;15.20;99.90;;;;;;5027770;28;20485;-63
2023/08/29 03:30:02;;;;;;;5.03;3.83;;;15.30;99.90;;;;;;5029157;28;20449;-63
2023/08/29 03:32:29;;;;;;;5.03;4.63;;;15.30;99.90;;;;;;5029220;28;20500;-63
2023/08/29 03:34:58;;;;;;;4.67;4.37;;;15.30;99.90;;;;;;5028813;28;20980;-63
2023/08/29 03:37:25;;;;;;;4.30;4.00;;;15.30;99.90;;;;;;5028273;28;20484;-63
2023/08/29 03:39:51;;;;;;;4.57;4.27;;;15.20;99.90;;;;;;5029067;28;20513;-63
2023/08/29 03:42:18;;;;;;;4.73;4.33;;;15.20;99.90;;;;;;5028817;28;20473;-63
2023/08/29 03:44:46;;;;;;;5.23;4.93;;;15.30;99.90;;;;;;5028981;28;20830;-63
2023/08/29 03:47:13;;;;;;;4.83;4.43;;;15.20;99.90;;;;;;5027947;28;20454;-63
2023/08/29 03:49:40;;;;;;;4.77;4.47;;;15.20;99.90;;;;;;5028806;28;20453;-63
2023/08/29 03:52:07;;;;;;;5.13;4.73;;;15.20;99.90;;;;;;5028443;28;20475;-63
2023/08/29 03:54:34;;;;;;;5.30;4.83;;;15.20;99.90;;;;;;5028817;28;21020;-63
2023/08/29 03:57:01;;;;;;;4.90;4.60;;;15.20;99.90;;;;;;5027843;28;20445;-63
2023/08/29 03:59:27;;;;;;;4.77;4.43;;;15.20;99.90;;;;;;5028805;28;20444;-63
2023/08/29 04:01:55;;;;;;;4.83;4.33;;;15.20;99.90;;;;;;5028556;28;21014;-63
2023/08/29 04:04:23;;;;;;;4.93;4.63;;;15.20;99.90;;;;;;5028804;28;20449;-63
2023/08/29 04:06:49;;;;;;;5.33;5.03;;;15.20;99.90;;;;;;5028169;28;20477;-63
2023/08/29 04:09:16;;;;;;;6.30;4.50;;;15.20;99.90;;;;;;5029211;28;20455;-63
2023/08/29 04:11:43;;;;;;;5.00;4.70;;;15.10;99.90;;;;;;5027843;28;21009;-63
2023/08/29 04:14:10;;;;;;;4.20;4.00;;;15.10;99.90;;;;;;5028774;28;20544;-63
2023/08/29 04:16:37;;;;;;;5.07;4.67;;;15.10;99.90;;;;;;5027990;28;20451;-63
2023/08/29 04:19:05;;;;;;;5.63;5.23;;;15.10;99.90;;;;;;5027912;28;20612;-63
2023/08/29 04:21:31;;;;;;;5.23;4.57;;;15.00;99.90;;;;;;5021849;28;20993;-63
2023/08/29 04:23:59;;;;;;;5.07;4.77;;;15.10;99.90;;;;;;5014158;28;20451;-63
2023/08/29 04:26:26;;;;;;;4.30;4.00;;;15.10;99.90;;;;;;5007858;28;20978;-63
2023/08/29 04:28:53;;;;;;;4.90;4.50;;;15.00;99.90;;;;;;5008679;28;20460;-63
2023/08/29 04:31:20;;;;;;;4.60;4.30;;;15.00;99.90;;;;;;5008821;28;20480;-63
2023/08/29 04:33:47;;;;;;;4.67;4.47;;;15.00;99.90;;;;;;5007490;28;20482;-63
2023/08/29 04:36:17;;;;;;;4.63;4.33;;;15.00;99.90;;;;;;5007940;28;20455;-63
2023/08/29 04:38:45;;;;;;;4.97;4.67;;;15.00;99.90;;;;;;5011091;28;20849;-63
2023/08/29 04:41:12;;;;;;;5.33;4.93;;;15.00;99.90;;;;;;5012350;28;20541;-63
2023/08/29 04:43:39;;;;;;;7.20;5.23;;;15.00;99.90;;;;;;5012200;28;20457;-63
2023/08/29 04:46:08;;;;;;;6.30;5.70;;;15.00;99.90;;;;;;5011540;28;20453;-63
2023/08/29 04:48:35;;;;;;;5.50;5.10;;;15.00;99.90;;;;;;5012371;28;20927;-63
2023/08/29 04:51:02;;;;;;;5.17;4.53;;;15.00;99.90;;;;;;5012194;28;20457;-63
2023/08/29 04:53:30;;;;;;;5.50;5.10;;;14.90;99.90;;;;;;5012168;28;20455;-63
2023/08/29 04:56:01;;;;;;;5.93;5.53;;;14.90;99.90;;;;;;5011463;28;20460;-63
2023/08/29 04:58:28;;;;;;;5.07;4.83;;;14.90;99.90;;;;;;5011859;28;20524;-63
2023/08/29 05:00:54;;;;;;;6.03;5.57;;;14.90;99.90;;;;;;5011897;28;20454;-63
2023/08/29 05:03:22;;;;;;;6.27;5.77;;;14.90;99.90;;;;;;5011711;28;20450;-63
2023/08/29 05:05:51;;;;;;;5.80;5.37;;;14.90;99.90;;;;;;5011785;28;20815;-63
2023/08/29 05:08:18;;;;;;;6.00;5.60;;;14.80;99.90;;;;;;5011364;28;20837;-63
2023/08/29 05:10:46;;;;;;;6.17;5.77;;;14.90;99.90;;;;;;5011000;28;20452;-63
2023/08/29 05:13:13;;;;;;;5.07;4.77;;;14.80;99.90;;;;;;5028709;28;20477;-62
2023/08/29 05:15:40;;;;;;;6.00;5.57;;;14.80;99.90;;;;;;5030512;28;20454;-63
2023/08/29 05:18:07;;;;;;;6.20;5.80;;;14.80;99.90;;;;;;5030095;28;20490;-63
2023/08/29 05:20:33;;;;;;;5.23;4.80;;;14.80;99.90;;;;;;5030850;28;20857;-63
2023/08/29 05:23:00;;;;;;;6.10;5.70;;;14.70;99.90;;;;;;5030452;28;21025;-63
2023/08/29 05:25:27;;;;;;;6.50;6.00;;;14.70;99.90;;;;;;5030341;28;20485;-63
2023/08/29 05:27:55;;;;;;;5.80;5.30;;;14.70;99.90;;;;;;5029701;28;20451;-63
2023/08/29 05:30:22;;;;;;;6.40;6.00;;;14.70;99.90;;;;;;5030062;28;20637;-63
2023/08/29 05:32:49;;;;;;;6.60;6.10;;;14.70;99.90;;;;;;5030642;28;20477;-63
2023/08/29 05:35:16;;;;;;;6.20;5.80;;;14.70;99.90;;;;;;5030569;28;20453;-63
2023/08/29 05:37:43;;;;;;;6.60;6.00;;;14.70;99.90;;;;;;5029249;28;20450;-63
2023/08/29 05:40:10;;;;;;;6.00;5.50;;;14.70;99.90;;;;;;5030333;28;20445;-63
2023/08/29 05:42:37;;;;;;;7.40;6.70;;;14.60;99.90;;;;;;5030061;28;20579;-63
2023/08/29 05:45:06;;;;;;;5.97;5.57;;;14.60;99.90;;;;;;5029876;28;20986;-63
2023/08/29 05:47:33;;;;;;;7.37;6.87;;;14.60;99.90;;;;;;5029029;28;20570;-63
2023/08/29 05:50:00;;;;;;;7.23;6.63;;;14.60;99.90;;;;;;5028944;28;20459;-63
2023/08/29 05:52:27;;;;;;;7.10;6.40;;;14.70;99.90;;;;;;5030056;28;21104;-63
2023/08/29 05:54:54;;;;;;;6.80;6.30;;;14.70;99.90;;;;;;5030020;28;20544;-63
2023/08/29 05:57:21;;;;;;;6.90;6.27;;;14.70;99.90;;;;;;5029188;28;20840;-63
2023/08/29 05:59:47;;;;;;;7.00;6.30;;;14.70;99.90;;;;;;5030269;28;20497;-63
2023/08/29 06:02:15;;;;;;;6.17;5.67;;;14.70;99.90;;;;;;5029925;28;20573;-63
2023/08/29 06:04:42;;;;;;;6.70;6.20;;;14.70;99.90;;;;;;5029789;28;20943;-63
2023/08/29 06:07:09;;;;;;;6.93;6.43;;;14.70;99.90;;;;;;5029048;28;20449;-63
2023/08/29 06:09:36;;;;;;;7.63;7.10;;;14.70;99.90;;;;;;5029553;28;20537;-63
2023/08/29 06:12:03;;;;;;;6.83;6.33;;;14.70;99.90;;;;;;5029657;28;20470;-63
2023/08/29 06:14:30;;;;;;;8.23;7.30;;;14.70;99.90;;;;;;5029686;28;20441;-63
2023/08/29 06:16:57;;;;;;;7.07;6.47;;;14.70;99.90;;;;;;5028709;28;20445;-63
2023/08/29 06:19:26;;;;;;;6.90;6.20;;;14.70;99.90;;;;;;5029641;28;20499;-62
2023/08/29 06:21:53;;;;;;;6.97;6.47;;;14.70;99.90;;;;;;5029034;28;20865;-63
2023/08/29 06:24:20;;;;;;;25.07;7.37;;;14.70;99.90;;;;;;5029560;28;20453;-63
2023/08/29 06:26:46;;;;;;;7.03;6.47;;;14.70;99.90;;;;;;5028914;28;20821;-63
2023/08/29 06:29:13;;;;;;;6.23;5.73;;;14.80;99.90;;;;;;5030204;28;20461;-63
2023/08/29 06:31:41;;;;;;;6.43;5.93;;;14.80;99.90;;;;;;5029101;28;20483;-63
2023/08/29 06:34:08;;;;;;;7.30;6.30;;;14.80;99.90;;;;;;5029907;28;20910;-63
2023/08/29 06:36:37;;;;;;;7.30;6.77;;;14.70;99.90;;;;;;5028827;28;20456;-63
2023/08/29 06:39:04;;;;;;;6.67;6.07;;;14.80;99.90;;;;;;5029430;28;20537;-63
2023/08/29 06:41:31;;;;;;;6.87;6.30;;;14.80;99.90;;;;;;5029462;28;20479;-63
2023/08/29 06:43:58;;;;;;;6.27;5.77;;;14.80;99.90;;;;;;5029484;28;20461;-63
2023/08/29 06:46:25;;;;;;;6.60;6.10;;;14.80;99.90;;;;;;5028608;28;20457;-63
2023/08/29 06:48:51;;;;;;;6.83;6.30;;;14.90;99.90;;;;;;5029331;28;20545;-63
2023/08/29 06:51:17;;;;;;;5.83;5.33;;;14.90;99.90;;;;;;5029069;28;20561;-63
2023/08/29 06:53:46;;;;;;;7.43;6.70;;;14.90;99.90;;;;;;5029253;28;20237;-63
2023/08/29 06:56:12;;;;;;;6.50;6.00;;;15.00;99.90;;;;;;5028617;28;20460;-63
2023/08/29 06:58:39;;;;;;;6.60;6.10;;;14.90;99.90;;;;;;5029446;28;20490;-63
2023/08/29 07:01:06;;;;;;;6.17;5.67;;;14.90;99.90;;;;;;5029021;28;20895;-63
2023/08/29 07:03:33;;;;;;;6.37;5.87;;;14.90;99.90;;;;;;5029054;28;20535;-63
2023/08/29 07:06:00;;;;;;;6.40;5.90;;;14.90;99.90;;;;;;5028269;28;20450;-63
2023/08/29 07:08:27;;;;;;;5.63;5.23;;;14.90;99.90;;;;;;5028983;28;20812;-63
2023/08/29 07:10:55;;;;;;;8.30;7.53;;;15.00;99.90;;;;;;5029064;28;20461;-63
2023/08/29 07:13:22;;;;;;;5.50;5.07;;;14.90;99.90;;;;;;5029167;28;20449;-63
2023/08/29 07:15:49;;;;;;;6.40;5.87;;;14.90;99.90;;;;;;5028752;28;20457;-63
2023/08/29 07:18:16;;;;;;;6.33;5.93;;;15.00;99.90;;;;;;5028643;28;20544;-63
2023/08/29 07:20:43;;;;;;;6.00;5.40;;;15.00;99.90;;;;;;5028834;28;20964;-63
2023/08/29 07:23:09;;;;;;;7.47;6.83;;;15.00;99.90;;;;;;5029001;28;20601;-63
2023/08/29 07:25:38;;;;;;;5.77;5.37;;;15.10;99.90;;;;;;5028960;28;20457;-63
2023/08/29 07:28:07;;;;;;;6.37;5.93;;;15.10;99.90;;;;;;5028150;28;20479;-63
2023/08/29 07:30:34;;;;;;;6.03;5.50;;;15.10;99.90;;;;;;5028087;28;20456;-63
2023/08/29 07:33:01;;;;;;;6.27;5.37;;;15.10;99.90;;;;;;5028323;28;20472;-63
2023/08/29 07:35:28;;;;;;;6.67;6.07;;;15.10;99.90;;;;;;5027405;28;21052;-63
2023/08/29 07:37:55;;;;;;;8.73;6.40;;;15.10;99.90;;;;;;5024944;28;20461;-63
2023/08/29 07:40:22;;;;;;;6.03;5.70;;;15.10;99.90;;;;;;5027037;28;20861;-63
2023/08/29 07:42:48;;;;;;;7.73;7.00;;;15.00;99.90;;;;;;5027113;28;20590;-63
2023/08/29 07:45:17;;;;;;;7.10;6.60;;;15.00;99.90;;;;;;5028460;28;20456;-63
2023/08/29 07:47:43;;;;;;;6.87;6.37;;;15.00;99.90;;;;;;5027120;28;20513;-63
2023/08/29 07:50:10;;;;;;;6.90;6.40;;;15.00;99.90;;;;;;5025715;28;20479;-63
2023/08/29 07:52:37;;;;;;;6.50;6.10;;;15.00;99.90;;;;;;5026072;28;20564;-63
2023/08/29 07:55:05;;;;;;;6.60;6.10;;;15.00;99.90;;;;;;5020791;28;20449;-63
2023/08/29 07:57:32;;;;;;;8.17;7.40;;;15.00;99.90;;;;;;5026532;28;21265;-63
2023/08/29 07:59:59;;;;;;;7.20;6.50;;;15.00;99.90;;;;;;5023179;28;20496;-63
2023/08/29 08:02:28;;;;;;;8.80;8.20;;;15.00;99.90;;;;;;5027043;28;20469;-63
2023/08/29 08:04:54;;;;;;;7.20;6.60;;;15.10;99.90;;;;;;5026976;28;20472;-63
2023/08/29 08:07:21;;;;;;;6.10;5.60;;;15.10;99.90;;;;;;5025629;28;21261;-63
2023/08/29 08:09:48;;;;;;;7.97;7.37;;;15.10;99.90;;;;;;5027355;28;20445;-63
2023/08/29 08:12:15;;;;;;;8.30;7.50;;;15.10;99.90;;;;;;5027282;28;20480;-63
2023/08/29 08:14:41;;;;;;;8.27;7.67;;;15.20;99.90;;;;;;5025355;28;20457;-63
2023/08/29 08:17:08;;;;;;;8.33;7.63;;;15.20;99.90;;;;;;5030868;28;20548;-63
2023/08/29 08:19:36;;;;;;;7.93;7.33;;;15.30;99.90;;;;;;5027132;28;20523;-63
2023/08/29 08:22:04;;;;;;;8.00;7.40;;;15.30;99.90;;;;;;5031416;28;21015;-63
2023/08/29 08:24:30;;;;;;;7.77;7.27;;;15.40;99.90;;;;;;5024557;28;20468;-63
2023/08/29 08:26:58;;;;;;;8.33;7.57;;;15.50;99.90;;;;;;5030957;28;20500;-63
2023/08/29 08:29:24;;;;;;;7.97;7.30;;;15.50;99.90;;;;;;5029667;28;20468;-63
2023/08/29 08:31:51;;;;;;;7.87;7.27;;;15.50;99.90;;;;;;5031266;28;20919;-63
2023/08/29 08:34:18;;;;;;;7.70;7.17;;;15.50;99.90;;;;;;5022825;28;20454;-63
2023/08/29 08:36:46;;;;;;;8.20;7.50;;;15.60;99.90;;;;;;5052512;22;20614;-62
2023/08/29 08:39:13;;;;;;;7.10;6.60;;;15.60;99.90;;;;;;5030902;28;20861;-62
2023/08/29 08:41:40;;;;;;;8.03;7.33;;;15.60;99.90;;;;;;5026743;28;21063;-62
2023/08/29 08:44:10;;;;;;;8.00;7.40;;;15.60;99.90;;;;;;5025868;28;20459;-62
2023/08/29 08:46:37;;;;;;;8.20;7.50;;;15.60;99.90;;;;;;5027861;28;20964;-62
2023/08/29 08:49:05;;;;;;;8.23;7.63;;;15.60;99.90;;;;;;5027180;28;20542;-62
2023/08/29 08:51:32;;;;;;;8.00;6.50;;;15.60;99.90;;;;;;5028606;28;20445;-62
2023/08/29 08:54:00;;;;;;;8.50;7.83;;;15.60;99.90;;;;;;5026287;28;20480;-62
2023/08/29 08:56:28;;;;;;;8.30;7.60;;;15.60;99.90;;;;;;5024791;28;20472;-62
2023/08/29 08:58:55;;;;;;;8.23;7.53;;;15.60;99.90;;;;;;5030925;28;20490;-62
2023/08/29 09:01:22;;;;;;;7.23;6.63;;;15.70;99.90;;;;;;5030992;28;20459;-62
2023/08/29 09:03:50;;;;;;;7.33;6.83;;;15.70;99.90;;;;;;5030993;28;20544;-62
2023/08/29 09:06:17;;;;;;;8.23;7.43;;;15.60;99.90;;;;;;5030350;28;20836;-62
2023/08/29 09:08:44;;;;;;;7.30;6.70;;;15.70;99.90;;;;;;5031101;28;20831;-62
2023/08/29 09:11:12;;;;;;;7.83;7.23;;;15.60;99.90;;;;;;5031166;28;20981;-62
2023/08/29 09:13:47;;;;;;;8.63;7.93;;;15.60;99.90;;;;;;5025739;28;20941;-62
2023/08/29 09:16:13;;;;;;;9.13;8.37;;;15.70;99.90;;;;;;5030053;28;20464;-62
2023/08/29 09:18:43;;;;;;;8.73;8.10;;;15.70;99.90;;;;;;5022911;28;20457;-62
2023/08/29 09:21:17;;;;;;;8.07;7.50;;;15.70;99.90;;;;;;4990272;28;20574;-62
2023/08/29 09:23:44;;;;;;;8.60;8.00;;;15.70;99.90;;;;;;4990055;28;20527;-63
2023/08/29 09:26:13;;;;;;;8.10;7.50;;;15.80;99.90;;;;;;4988903;28;20537;-62
2023/08/29 09:28:40;;;;;;;9.20;8.50;;;15.80;99.90;;;;;;4991093;28;20454;-62
2023/08/29 09:31:08;;;;;;;8.50;7.90;;;15.90;99.90;;;;;;5006252;28;21058;-62
2023/08/29 09:33:36;;;;;;;8.40;7.60;;;16.00;99.90;;;;;;5018703;28;20457;-63
2023/08/29 09:36:04;;;;;;;7.10;6.60;;;16.00;99.90;;;;;;5029047;28;20450;-62
2023/08/29 09:38:32;;;;;;;7.47;6.87;;;16.00;99.90;;;;;;5029617;28;20519;-63
2023/08/29 09:40:59;;;;;;;8.07;7.50;;;16.00;99.90;;;;;;5025099;28;20502;-62
2023/08/29 09:43:28;;;;;;;9.87;8.97;;;16.00;99.90;;;;;;5019557;28;20468;-62
2023/08/29 09:45:56;;;;;;;9.10;8.37;;;16.00;99.90;;;;;;5014658;28;20819;-62
2023/08/29 09:48:23;;;;;;;7.50;7.00;;;16.10;99.90;;;;;;5029020;28;21071;-63
2023/08/29 09:50:52;;;;;;;8.50;7.87;;;16.20;99.90;;;;;;5028027;28;20455;-62
2023/08/29 09:53:21;;;;;;;7.60;6.80;;;16.20;99.90;;;;;;5028652;28;20449;-62
2023/08/29 09:55:49;;;;;;;7.30;6.83;;;16.20;99.90;;;;;;5024927;28;20462;-63
2023/08/29 09:58:18;;;;;;;8.70;8.03;;;16.30;99.90;;;;;;5028778;28;20473;-63
2023/08/29 10:00:47;;;;;;;6.60;6.20;;;16.40;99.90;;;;;;5028676;28;20494;-62
2023/08/29 10:03:14;;;;;;;8.00;7.30;;;16.40;99.90;;;;;;5029313;28;20455;-63
2023/08/29 10:05:44;;;;;;;7.73;7.13;;;16.40;99.90;;;;;;5028737;28;20547;-62
2023/08/29 10:08:19;;;;;;;7.50;6.93;;;16.50;99.90;;;;;;5028245;28;20558;-62
2023/08/29 10:10:47;;;;;;;7.50;6.93;;;16.50;99.90;;;;;;5028704;28;20473;-62
2023/08/29 10:13:16;;;;;;;5.87;5.40;;;16.50;99.90;;;;;;5023490;28;20451;-63
2023/08/29 10:15:47;;;;;;;6.73;6.33;;;16.50;99.90;;;;;;5028294;28;20500;-62
2023/08/29 10:18:15;;;;;;;8.13;7.47;;;16.60;99.90;;;;;;5027980;28;20991;-62
2023/08/29 10:20:43;;;;;;;7.70;7.10;;;16.60;99.90;;;;;;5027826;28;20602;-62
2023/08/29 10:23:12;;;;;;;8.17;7.57;;;16.70;99.90;;;;;;5028294;28;20466;-63
2023/08/29 10:25:39;;;;;;;7.37;6.77;;;16.70;99.90;;;;;;5028061;28;20500;-63
2023/08/29 10:28:09;;;;;;;6.50;6.03;;;16.80;99.90;;;;;;5027646;28;20484;-62
2023/08/29 10:30:39;;;;;;;7.00;6.37;;;16.90;99.90;;;;;;5027658;28;20799;-63
2023/08/29 10:33:08;;;;;;;6.53;6.13;;;17.00;99.90;;;;;;5024630;28;20454;-63
2023/08/29 10:35:35;;;;;;;7.40;6.70;;;17.00;99.90;;;;;;5027566;28;20448;-63
2023/08/29 10:38:03;;;;;;;6.33;5.83;;;17.10;99.90;;;;;;5027324;28;20505;-62
2023/08/29 10:40:36;;;;;;;6.20;5.80;;;17.20;99.90;;;;;;5020366;28;20483;-63
2023/08/29 10:43:03;;;;;;;5.70;5.30;;;17.20;99.90;;;;;;5027621;28;20822;-63
2023/08/29 10:45:43;;;;;;;5.80;5.40;;;17.20;99.90;;;;;;5027983;28;20457;-63
2023/08/29 10:48:17;;;;;;;8.63;6.47;;;17.30;99.90;;;;;;5027483;28;20564;-62
2023/08/29 10:50:47;;;;;;;8.53;6.83;;;17.30;99.90;;;;;;5022907;28;20467;-62
2023/08/29 10:53:18;;;;;;;6.13;5.73;;;17.20;99.90;;;;;;5027418;28;20538;-62
2023/08/29 10:55:59;;;;;;;6.07;5.67;;;17.20;99.90;;;;;;5027913;28;20457;-63
2023/08/29 10:58:36;;;;;;;6.27;5.87;;;17.20;99.90;;;;;;5022734;28;20467;-63
2023/08/29 11:01:04;;;;;;;6.03;5.47;;;17.10;99.90;;;;;;5007881;28;20495;-62
2023/08/29 11:03:57;;;;;;;6.13;5.63;;;17.10;99.90;;;;;;5007907;28;20542;-64
2023/08/29 11:06:25;;;;;;;6.27;5.87;;;17.10;99.90;;;;;;4992614;28;20542;-63
2023/08/29 11:09:20;;;;;;;6.43;6.00;;;17.10;99.90;;;;;;5008293;28;20446;-62
2023/08/29 11:12:09;;;;;;;6.83;6.13;;;17.20;99.90;;;;;;5007569;28;20823;-63
2023/08/29 11:14:50;;;;;;;7.90;7.40;;;17.30;99.90;;;;;;5023237;28;20585;-63
2023/08/29 11:17:22;;;;;;;6.30;5.80;;;17.40;99.90;;;;;;5026753;28;20472;-63
2023/08/29 11:19:52;;;;;;;5.93;5.43;;;17.60;99.90;;;;;;5026940;28;20577;-63
2023/08/29 11:22:22;;;;;;;5.57;5.13;;;17.60;99.90;;;;;;5026949;28;20826;-63
2023/08/29 11:24:54;;;;;;;5.37;5.07;;;17.70;99.90;;;;;;5027494;28;20833;-63
2023/08/29 11:27:21;;;;;;;5.40;5.10;;;17.80;99.90;;;;;;5026589;28;20529;-63
2023/08/29 11:29:49;;;;;;;5.17;4.87;;;17.90;99.90;;;;;;5027347;28;20528;-63
2023/08/29 11:32:17;;;;;;;4.20;4.00;;;18.00;99.90;;;;;;5023251;28;20454;-63
2023/08/29 11:34:44;;;;;;;3.47;3.27;;;18.10;99.90;;;;;;5010147;28;20454;-63
2023/08/29 11:37:12;;;;;;;5.20;4.90;;;18.20;99.90;;;;;;5013802;28;20480;-62
2023/08/29 11:39:39;;;;;;;4.57;4.27;;;18.30;99.90;;;;;;5021543;28;20452;-63
2023/08/29 11:42:06;;;;;;;4.00;3.63;;;18.40;99.90;;;;;;5026735;28;20449;-63
2023/08/29 11:44:34;;;;;;;3.20;2.90;;;18.40;99.90;;;;;;5027066;28;20449;-63
2023/08/29 11:47:01;;;;;;;2.87;2.67;;;18.50;99.90;;;;;;5025663;28;20468;-63
2023/08/29 11:49:27;;;;;;;2.63;2.43;;;18.50;99.90;;;;;;5026573;28;20951;-63
2023/08/29 11:51:54;;;;;;;3.70;3.50;;;18.50;99.90;;;;;;5025547;28;20532;-62
2023/08/29 11:54:45;;;;;;;3.53;3.20;;;18.50;99.90;;;;;;5026655;28;20977;-62
2023/08/29 11:57:13;;;;;;;3.03;2.83;;;18.50;99.90;;;;;;5026110;28;20556;-62
2023/08/29 11:59:41;;;;;;;3.30;3.00;;;18.60;99.90;;;;;;5027163;28;20483;-62
2023/08/29 12:02:11;;;;;;;3.47;3.27;;;18.70;99.90;;;;;;5026513;28;20455;-62
2023/08/29 12:04:41;;;;;;;3.30;3.13;;;18.70;99.90;;;;;;5026962;28;20546;-62
2023/08/29 12:07:10;;;;;;;3.40;3.20;;;18.70;99.90;;;;;;5026201;28;20567;-62
2023/08/29 12:09:39;;;;;;;2.30;2.20;;;18.70;99.90;;;;;;5026821;28;20546;-63
2023/08/29 12:12:08;;;;;;;3.70;2.77;;;18.80;99.90;;;;;;5026624;28;20460;-62
2023/08/29 12:14:50;;;;;;;3.00;2.57;;;18.80;99.90;;;;;;5026425;28;20456;-63
2023/08/29 12:17:18;;;;;;;3.27;3.03;;;18.80;99.90;;;;;;5016217;28;20456;-63
2023/08/29 12:19:44;;;;;;;4.40;3.20;;;18.70;99.90;;;;;;5007175;28;20446;-63
2023/08/29 12:22:11;;;;;;;4.00;3.17;;;18.70;99.90;;;;;;4998312;28;20537;-63
2023/08/29 12:24:39;;;;;;;2.73;2.53;;;18.70;99.90;;;;;;4999428;28;20544;-63
2023/08/29 12:27:08;;;;;;;3.60;3.33;;;18.70;99.90;;;;;;4990016;28;20983;-63
2023/08/29 12:29:35;;;;;;;4.47;2.43;;;18.70;99.90;;;;;;4990580;28;20452;-63
2023/08/29 12:32:02;;;;;;;2.33;2.13;;;18.80;99.90;;;;;;4999168;28;20521;-63
2023/08/29 12:34:29;;;;;;;1.87;1.77;;;18.80;99.90;;;;;;4997607;28;21298;-64
2023/08/29 12:36:56;;;;;;;2.13;2.03;;;18.80;99.90;;;;;;4991163;28;20585;-63
2023/08/29 12:39:22;;;;;;;2.00;1.80;;;18.80;99.90;;;;;;5004470;28;20460;-63
2023/08/29 12:41:49;;;;;;;1.80;1.70;;;18.80;99.90;;;;;;5011083;28;20491;-63
2023/08/29 12:44:17;;;;;;;2.10;2.00;;;18.70;99.90;;;;;;5017006;28;21203;-63
2023/08/29 12:46:44;;;;;;;2.50;2.30;;;18.60;99.90;;;;;;5007554;28;20488;-64
2023/08/29 12:49:11;;;;;;;2.00;1.90;;;18.60;99.90;;;;;;5013233;28;20457;-63
2023/08/29 12:51:38;;;;;;;2.73;2.63;;;18.50;99.90;;;;;;5006925;28;20457;-63